createdAt,value
2022-10-29T00:01:09.676Z,100759.63
2022-10-29T00:03:38.091Z,100756.97
2022-10-29T00:06:08.868Z,100768.41
2022-10-29T00:08:39.186Z,100762.22
2022-10-29T00:11:10.762Z,100762.22
2022-10-29T00:13:39.155Z,100762.19
2022-10-29T00:16:09.362Z,100760.41
2022-10-29T00:18:37.846Z,100765.69
2022-10-29T00:21:08.127Z,100774.44
2022-10-29T00:23:36.568Z,100773.56
2022-10-29T00:26:05.372Z,100775.31
2022-10-29T00:28:35.394Z,100780.59
2022-10-29T00:31:05.322Z,100784.13
2022-10-29T00:33:34.175Z,100781.50
2022-10-29T00:36:05.257Z,100770.94
2022-10-29T00:38:34.813Z,100775.31
2022-10-29T00:41:04.397Z,100771.81
2022-10-29T00:43:37.703Z,100768.31
2022-10-29T00:46:09.581Z,100760.41
2022-10-29T00:48:43.403Z,100763.03
2022-10-29T00:51:14.168Z,100758.63
2022-10-29T00:53:47.954Z,100770.09
2022-10-29T00:56:17.289Z,100762.16
2022-10-29T00:58:47.747Z,100764.81
2022-10-29T01:01:16.909Z,100764.81
2022-10-29T01:03:45.430Z,100750.75
2022-10-29T01:06:14.405Z,100744.59
2022-10-29T01:08:42.701Z,100754.22
2022-10-29T01:11:21.704Z,100751.59
2022-10-29T01:14:03.835Z,100754.19
2022-10-29T01:16:44.461Z,100743.63
2022-10-29T01:19:20.110Z,100748.88
2022-10-29T01:21:52.491Z,100746.25
2022-10-29T01:25:02.775Z,100748.84
2022-10-29T01:27:50.593Z,100744.41
2022-10-29T01:30:36.965Z,100743.50
2022-10-29T01:33:15.253Z,100739.06
2022-10-29T01:35:51.741Z,100746.97
2022-10-29T01:38:33.150Z,100739.88
2022-10-29T01:41:08.771Z,100734.59
2022-10-29T01:43:43.809Z,100731.06
2022-10-29T01:46:17.629Z,100724.81
2022-10-29T01:48:50.007Z,100724.78
2022-10-29T01:51:23.151Z,100722.13
2022-10-29T01:53:52.897Z,100725.63
2022-10-29T01:56:21.263Z,100719.41
2022-10-29T01:58:54.531Z,100723.78
2022-10-29T02:01:37.975Z,100721.97
2022-10-29T02:04:20.665Z,100723.69
2022-10-29T02:06:59.125Z,100716.63
2022-10-29T02:09:34.778Z,100708.66
2022-10-29T02:12:11.773Z,100713.91
2022-10-29T02:14:46.612Z,100707.72
2022-10-29T02:17:14.949Z,100705.03
2022-10-29T02:19:44.941Z,100700.59
2022-10-29T02:22:13.272Z,100708.50
2022-10-29T02:24:41.596Z,100699.72
2022-10-29T02:27:09.972Z,100693.50
2022-10-29T02:29:39.428Z,100690.84
2022-10-29T02:32:07.765Z,100694.34
2022-10-29T02:34:36.136Z,100692.56
2022-10-29T02:37:05.843Z,100686.34
2022-10-29T02:39:34.228Z,100687.19
2022-10-29T02:42:02.562Z,100688.03
2022-10-29T02:44:30.992Z,100689.75
2022-10-29T02:46:59.359Z,100677.38
2022-10-29T02:49:27.828Z,100679.13
2022-10-29T02:51:56.157Z,100679.03
2022-10-29T02:54:25.876Z,100669.31
2022-10-29T02:56:54.217Z,100676.31
2022-10-29T02:59:22.501Z,100673.63
2022-10-29T03:01:50.984Z,100678.88
2022-10-29T03:04:19.472Z,100670.91
2022-10-29T03:06:47.793Z,100679.66
2022-10-29T03:09:16.106Z,100681.34
2022-10-29T03:11:45.789Z,100691.00
2022-10-29T03:14:14.155Z,100689.16
2022-10-29T03:16:42.467Z,100685.53
2022-10-29T03:19:10.806Z,100676.75
2022-10-29T03:21:39.129Z,100672.31
2022-10-29T03:24:08.007Z,100669.69
2022-10-29T03:26:36.341Z,100661.75
2022-10-29T03:29:06.046Z,100660.84
2022-10-29T03:31:34.366Z,100671.34
2022-10-29T03:34:02.895Z,100658.16
2022-10-29T03:36:31.229Z,100655.53
2022-10-29T03:38:59.535Z,100663.38
2022-10-29T03:41:27.928Z,100672.19
2022-10-29T03:46:30.983Z,100665.09
2022-10-29T03:48:59.416Z,100664.22
2022-10-29T03:51:27.784Z,100673.00
2022-10-29T03:53:56.164Z,100662.44
2022-10-29T03:56:24.495Z,100665.06
2022-10-29T03:58:52.780Z,100666.84
2022-10-29T04:01:21.211Z,100643.97
2022-10-29T04:03:51.082Z,100632.56
2022-10-29T04:06:19.362Z,100625.53
2022-10-29T04:08:47.799Z,100635.19
2022-10-29T04:11:16.212Z,100647.47
2022-10-29T04:13:44.540Z,100646.59
2022-10-29T04:16:12.861Z,100640.41
2022-10-29T04:18:41.182Z,100643.94
2022-10-29T04:29:35.898Z,100655.25
2022-10-29T04:32:04.406Z,100659.66
2022-10-29T04:34:32.715Z,100648.22
2022-10-29T04:37:02.420Z,100642.94
2022-10-29T04:39:30.714Z,100635.00
2022-10-29T04:41:58.965Z,100633.25
2022-10-29T04:44:27.337Z,100621.88
2022-10-29T04:46:55.620Z,100620.06
2022-10-29T04:49:24.126Z,100617.47
2022-10-29T04:51:52.469Z,100623.63
2022-10-29T04:54:22.141Z,100613.97
2022-10-29T04:56:50.424Z,100621.91
2022-10-29T04:59:18.700Z,100615.78
2022-10-29T05:01:47.044Z,100590.34
2022-10-29T05:04:15.345Z,100569.25
2022-10-29T05:06:43.685Z,100569.28
2022-10-29T05:09:11.985Z,100580.72
2022-10-29T05:11:41.723Z,100587.78
2022-10-29T05:14:10.096Z,100586.91
2022-10-29T05:16:38.447Z,100586.91
2022-10-29T05:19:06.931Z,100593.97
2022-10-29T05:21:35.408Z,100601.03
2022-10-29T05:24:03.713Z,100593.13
2022-10-29T05:26:32.369Z,100592.25
2022-10-29T05:29:02.281Z,100592.25
2022-10-29T05:31:30.611Z,100591.41
2022-10-29T05:33:58.932Z,100587.88
2022-10-29T05:36:27.276Z,100587.00
2022-10-29T05:38:55.659Z,100591.41
2022-10-29T05:41:23.976Z,100591.41
2022-10-29T05:43:52.351Z,100585.28
2022-10-29T05:46:22.052Z,100593.19
2022-10-29T05:48:50.333Z,100596.75
2022-10-29T05:51:18.650Z,100591.47
2022-10-29T05:53:48.383Z,100594.09
2022-10-29T05:56:17.006Z,100590.59
2022-10-29T05:58:45.324Z,100585.31
2022-10-29T06:01:13.688Z,100582.69
2022-10-29T06:03:43.486Z,100593.22
2022-10-29T06:06:11.918Z,100593.25
2022-10-29T06:08:40.312Z,100587.94
2022-10-29T06:11:08.636Z,100571.28
2022-10-29T06:13:36.984Z,100569.53
2022-10-29T06:16:05.726Z,100571.28
2022-10-29T06:18:34.001Z,100575.69
2022-10-29T06:21:03.712Z,100570.41
2022-10-29T06:23:32.013Z,100566.91
2022-10-29T06:26:01.641Z,100567.81
2022-10-29T06:28:33.742Z,100568.69
2022-10-29T06:31:03.714Z,100566.09
2022-10-29T06:33:32.060Z,100560.88
2022-10-29T06:36:00.649Z,100565.25
2022-10-29T06:38:30.436Z,100568.78
2022-10-29T06:40:58.744Z,100572.34
2022-10-29T06:43:27.133Z,100570.56
2022-10-29T06:45:55.573Z,100565.34
2022-10-29T06:48:24.245Z,100568.91
2022-10-29T06:50:52.714Z,100560.13
2022-10-29T06:53:21.607Z,100570.69
2022-10-29T06:55:51.287Z,100561.94
2022-10-29T06:58:21.039Z,100568.13
2022-10-29T07:00:49.628Z,100569.09
2022-10-29T07:03:19.766Z,100572.63
2022-10-29T07:05:48.606Z,100567.41
2022-10-29T07:08:16.985Z,100572.75
2022-10-29T07:10:51.235Z,100567.50
2022-10-29T07:13:21.106Z,100570.22
2022-10-29T07:15:49.671Z,100574.66
2022-10-29T07:18:18.058Z,100572.97
2022-10-29T07:20:46.760Z,100573.88
2022-10-29T07:23:15.403Z,100563.41
2022-10-29T07:25:43.820Z,100568.75
2022-10-29T07:28:14.207Z,100568.84
2022-10-29T07:30:44.652Z,100568.03
2022-10-29T07:33:13.242Z,100572.50
2022-10-29T07:35:41.934Z,100573.44
2022-10-29T07:38:12.520Z,100582.31
2022-10-29T07:40:47.362Z,100589.41
2022-10-29T07:43:15.903Z,100586.84
2022-10-29T07:45:46.952Z,100595.69
2022-10-29T07:48:15.282Z,100588.75
2022-10-29T07:50:43.932Z,100585.31
2022-10-29T07:53:12.398Z,100590.66
2022-10-29T07:55:40.705Z,100600.44
2022-10-29T07:58:12.393Z,100596.13
2022-10-29T08:00:42.223Z,100592.66
2022-10-29T08:03:13.756Z,100587.47
2022-10-29T08:05:43.068Z,100583.13
2022-10-29T08:08:11.701Z,100609.63
2022-10-29T08:10:40.297Z,100595.63
2022-10-29T08:13:08.857Z,100586.84
2022-10-29T08:15:37.232Z,100580.72
2022-10-29T08:18:15.782Z,100579.84
2022-10-29T08:20:44.189Z,100589.59
2022-10-29T08:23:12.921Z,100585.22
2022-10-29T08:25:42.806Z,100592.31
2022-10-29T08:28:12.549Z,100583.50
2022-10-29T08:30:41.583Z,100579.16
2022-10-29T08:33:10.700Z,100577.41
2022-10-29T08:35:40.325Z,100571.28
2022-10-29T08:38:08.894Z,100572.22
2022-10-29T08:40:48.219Z,100573.13
2022-10-29T08:43:46.955Z,100568.75
2022-10-29T08:46:21.082Z,100574.94
2022-10-29T08:48:53.778Z,100564.41
2022-10-29T08:51:26.713Z,100562.66
2022-10-29T08:56:50.373Z,100564.50
2022-10-29T08:59:21.487Z,100573.34
2022-10-29T09:01:50.423Z,100567.19
2022-10-29T09:04:24.497Z,100571.63
2022-10-29T09:07:16.822Z,100573.44
2022-10-29T09:09:50.247Z,100570.84
2022-10-29T09:12:38.795Z,100574.44
2022-10-29T09:15:42.315Z,100569.16
2022-10-29T09:18:23.758Z,100568.31
2022-10-29T09:20:56.895Z,100560.38
2022-10-29T09:23:36.455Z,100560.38
2022-10-29T09:26:07.843Z,100556.88
2022-10-29T09:28:51.498Z,100558.66
2022-10-29T09:31:30.787Z,100561.31
2022-10-29T09:34:05.469Z,100548.06
2022-10-29T09:36:34.879Z,100555.16
2022-10-29T09:39:11.482Z,100554.28
2022-10-29T09:41:41.089Z,100556.09
2022-10-29T09:44:20.622Z,100542.81
2022-10-29T09:47:04.399Z,100538.41
2022-10-29T09:49:48.003Z,100540.19
2022-10-29T09:52:19.105Z,100539.31
2022-10-29T09:54:51.084Z,100540.19
2022-10-29T09:57:22.867Z,100538.41
2022-10-29T09:59:54.825Z,100546.34
2022-10-29T10:02:33.687Z,100540.19
2022-10-29T10:05:06.619Z,100531.31
2022-10-29T10:07:34.987Z,100537.50
2022-10-29T10:10:06.945Z,100537.47
2022-10-29T10:12:46.774Z,100548.13
2022-10-29T10:15:24.068Z,100547.22
2022-10-29T10:18:01.670Z,100541.03
2022-10-29T10:20:39.345Z,100537.47
2022-10-29T10:23:40.449Z,100534.84
2022-10-29T10:26:36.462Z,100536.59
2022-10-29T10:29:13.692Z,100531.25
2022-10-29T10:31:43.761Z,100521.53
2022-10-29T10:34:18.070Z,100530.38
2022-10-29T10:36:51.299Z,100533.91
2022-10-29T10:39:31.235Z,100525.03
2022-10-29T10:42:04.467Z,100523.25
2022-10-29T10:44:33.563Z,100522.38
2022-10-29T10:47:08.311Z,100504.66
2022-10-29T10:49:38.354Z,100512.63
2022-10-29T10:52:15.417Z,100517.91
2022-10-29T10:54:47.797Z,100508.19
2022-10-29T10:57:24.015Z,100505.50
2022-10-29T10:59:59.846Z,100517.00
2022-10-29T11:02:36.330Z,100512.53
2022-10-29T11:05:13.220Z,100511.63
2022-10-29T11:07:47.044Z,100516.88
2022-10-29T11:10:18.984Z,100509.78
2022-10-29T11:12:54.268Z,100511.50
2022-10-29T11:15:31.820Z,100511.47
2022-10-29T11:18:07.492Z,100511.41
2022-10-29T11:20:37.391Z,100505.16
2022-10-29T11:23:24.330Z,100506.03
2022-10-29T11:26:01.073Z,100491.75
2022-10-29T11:28:39.583Z,100493.50
2022-10-29T11:31:15.874Z,100494.34
2022-10-29T11:33:51.884Z,100494.28
2022-10-29T11:36:22.908Z,100487.19
2022-10-29T11:38:57.773Z,100490.69
2022-10-29T11:41:33.197Z,100499.50
2022-10-29T11:44:02.995Z,100493.28
2022-10-29T11:46:38.960Z,100503.00
2022-10-29T11:49:25.843Z,100498.56
2022-10-29T11:52:03.402Z,100486.97
2022-10-29T11:54:44.709Z,100488.72
2022-10-29T11:57:17.809Z,100479.78
2022-10-29T12:00:04.497Z,100480.59
2022-10-29T12:02:57.830Z,100492.13
2022-10-29T12:05:36.825Z,100480.50
2022-10-29T12:08:21.987Z,100478.69
2022-10-29T12:10:55.576Z,100477.75
2022-10-29T12:13:40.845Z,100475.06
2022-10-29T12:16:24.774Z,100475.03
2022-10-29T12:18:59.990Z,100474.13
2022-10-29T12:21:39.343Z,100476.75
2022-10-29T12:24:22.818Z,100467.88
2022-10-29T12:26:57.071Z,100462.56
2022-10-29T12:29:33.772Z,100462.56
2022-10-29T12:32:09.626Z,100470.56
2022-10-29T12:34:42.959Z,100458.16
2022-10-29T12:37:18.465Z,100452.81
2022-10-29T12:39:51.373Z,100451.06
2022-10-29T12:42:23.936Z,100446.63
2022-10-29T12:45:03.385Z,100434.22
2022-10-29T12:47:39.805Z,100441.34
2022-10-29T12:50:24.573Z,100442.19
2022-10-29T12:53:01.074Z,100435.09
2022-10-29T12:55:30.427Z,100436.84
2022-10-29T12:57:59.001Z,100435.97
2022-10-29T13:00:48.448Z,100427.94
2022-10-29T13:04:05.699Z,100434.06
2022-10-29T13:06:57.378Z,100425.97
2022-10-29T13:09:27.556Z,100421.41
2022-10-29T13:11:57.733Z,100429.25
2022-10-29T13:14:36.652Z,100425.56
2022-10-29T13:17:08.092Z,100419.28
2022-10-29T13:19:46.960Z,100420.97
2022-10-29T13:22:57.308Z,100410.28
2022-10-29T13:25:50.385Z,100405.81
2022-10-29T13:28:49.344Z,100402.28
2022-10-29T13:31:49.957Z,100390.75
2022-10-29T13:34:55.557Z,100397.88
2022-10-29T13:37:52.023Z,100388.97
2022-10-29T13:40:41.453Z,100379.22
2022-10-29T13:43:18.008Z,100383.63
2022-10-29T13:45:51.268Z,100378.28
2022-10-29T13:48:27.365Z,100378.25
2022-10-29T13:50:58.567Z,100373.78
2022-10-29T13:53:35.388Z,100371.00
2022-10-29T13:56:10.238Z,100370.00
2022-10-29T13:58:41.881Z,100373.47
2022-10-29T14:01:16.424Z,100368.94
2022-10-29T14:03:58.673Z,100359.94
2022-10-29T14:06:32.386Z,100362.47
2022-10-29T14:09:12.342Z,100362.31
2022-10-29T14:11:46.191Z,100370.13
2022-10-29T14:14:25.732Z,100363.78
2022-10-29T14:17:13.102Z,100365.50
2022-10-29T14:19:46.578Z,100357.44
2022-10-29T14:22:31.595Z,100356.53
2022-10-29T14:25:00.953Z,100354.69
2022-10-29T14:27:31.160Z,100361.78
2022-10-29T14:30:20.491Z,100355.53
2022-10-29T14:32:48.942Z,100354.66
2022-10-29T14:35:17.771Z,100345.72
2022-10-29T14:37:49.081Z,100339.50
2022-10-29T14:40:23.326Z,100340.38
2022-10-29T14:42:55.269Z,100336.84
2022-10-29T14:45:28.239Z,100330.63
2022-10-29T14:47:58.608Z,100339.59
2022-10-29T14:50:29.158Z,100342.31
2022-10-29T14:53:01.286Z,100333.53
2022-10-29T14:55:34.662Z,100330.06
2022-10-29T14:58:08.976Z,100333.69
2022-10-29T15:00:37.705Z,100332.03
2022-10-29T15:03:07.816Z,100338.31
2022-10-29T15:05:38.780Z,100333.09
2022-10-29T15:08:15.371Z,100332.25
2022-10-29T15:10:48.231Z,100334.19
2022-10-29T15:13:25.446Z,100349.47
2022-10-29T15:15:56.512Z,100335.34
2022-10-29T15:18:26.615Z,100324.78
2022-10-29T15:20:56.540Z,100331.09
2022-10-29T15:23:27.878Z,100330.38
2022-10-29T15:26:01.547Z,100329.56
2022-10-29T15:28:37.700Z,100340.34
2022-10-29T15:31:06.736Z,100344.88
2022-10-29T15:33:38.159Z,100338.78
2022-10-29T15:36:07.196Z,100334.44
2022-10-29T15:39:10.277Z,100329.25
2022-10-29T15:41:44.950Z,100333.75
2022-10-29T15:44:34.663Z,100344.53
2022-10-29T15:47:04.457Z,100341.88
2022-10-29T15:49:33.112Z,100337.50
2022-10-29T15:52:01.961Z,100334.94
2022-10-29T15:54:30.689Z,100334.09
2022-10-29T15:56:59.460Z,100327.97
2022-10-29T15:59:27.799Z,100327.13
2022-10-29T16:01:57.567Z,100326.31
2022-10-29T16:04:25.959Z,100327.25
2022-10-29T16:06:54.338Z,100321.09
2022-10-29T16:09:22.764Z,100314.09
2022-10-29T16:11:52.006Z,100327.44
2022-10-29T16:14:20.407Z,100324.00
2022-10-29T16:16:48.761Z,100328.47
2022-10-29T16:19:18.417Z,100325.00
2022-10-29T16:21:46.762Z,100317.94
2022-10-29T16:24:15.878Z,100326.00
2022-10-29T16:26:44.302Z,100312.69
2022-10-29T16:29:16.000Z,100322.47
2022-10-29T16:31:44.886Z,100310.13
2022-10-29T16:34:15.119Z,100304.81
2022-10-29T16:36:45.994Z,100308.41
2022-10-29T16:39:14.296Z,100312.91
2022-10-29T16:41:42.691Z,100307.59
2022-10-29T16:44:10.969Z,100308.53
2022-10-29T16:46:39.281Z,100306.78
2022-10-29T16:49:07.597Z,100304.16
2022-10-29T16:51:35.966Z,100305.06
2022-10-29T16:54:06.024Z,100304.22
2022-10-29T16:56:34.321Z,100305.16
2022-10-29T16:59:02.665Z,100301.63
2022-10-29T17:01:31.000Z,100313.16
2022-10-29T17:03:59.518Z,100306.09
2022-10-29T17:06:27.862Z,100297.28
2022-10-29T17:08:56.145Z,100305.25
2022-10-29T17:11:25.875Z,100301.72
2022-10-29T17:13:54.769Z,100305.28
2022-10-29T17:16:23.158Z,100314.16
2022-10-29T17:18:51.982Z,100311.53
2022-10-29T17:21:20.425Z,100312.44
2022-10-29T17:23:48.812Z,100308.03
2022-10-29T17:26:17.293Z,100308.06
2022-10-29T17:28:47.009Z,100312.50
2022-10-29T17:31:15.322Z,100310.75
2022-10-29T17:33:43.615Z,100314.31
2022-10-29T17:36:13.684Z,100310.75
2022-10-29T17:38:42.345Z,100317.84
2022-10-29T17:41:10.995Z,100310.78
2022-10-29T17:43:39.290Z,100309.03
2022-10-29T17:46:09.033Z,100321.44
2022-10-29T17:48:38.811Z,100309.06
2022-10-29T17:51:08.535Z,100310.84
2022-10-29T17:53:38.644Z,100313.53
2022-10-29T17:56:07.854Z,100319.72
2022-10-29T17:58:36.153Z,100310.88
2022-10-29T18:01:06.107Z,100313.53
2022-10-29T18:03:35.961Z,100321.53
2022-10-29T18:06:06.450Z,100318.91
2022-10-29T18:08:36.932Z,100325.09
2022-10-29T18:11:06.347Z,100326.84
2022-10-29T18:13:39.289Z,100329.53
2022-10-29T18:16:08.839Z,100328.66
2022-10-29T18:18:54.166Z,100321.59
2022-10-29T18:21:28.962Z,100328.69
2022-10-29T18:23:57.298Z,100323.38
2022-10-29T18:26:27.650Z,100321.63
2022-10-29T18:28:56.840Z,100319.00
2022-10-29T18:31:27.336Z,100311.88
2022-10-29T18:33:57.862Z,100307.47
2022-10-29T18:36:26.415Z,100303.94
2022-10-29T18:38:56.669Z,100304.84
2022-10-29T18:41:25.364Z,100306.66
2022-10-29T18:43:54.454Z,100296.94
2022-10-29T18:46:23.124Z,100304.88
2022-10-29T18:48:52.136Z,100299.56
2022-10-29T18:51:24.258Z,100311.09
2022-10-29T18:53:53.662Z,100305.81
2022-10-29T18:56:23.688Z,100312.88
2022-10-29T18:58:52.090Z,100306.69
2022-10-29T19:01:22.555Z,100302.28
2022-10-29T19:03:52.592Z,100309.38
2022-10-29T19:06:23.408Z,100316.44
2022-10-29T19:08:52.264Z,100312.91
2022-10-29T19:11:22.886Z,100301.44
2022-10-29T19:13:52.294Z,100298.75
2022-10-29T19:16:21.046Z,100303.19
2022-10-29T19:18:54.620Z,100302.31
2022-10-29T19:21:25.374Z,100306.75
2022-10-29T19:23:57.096Z,100310.28
2022-10-29T19:26:26.946Z,100305.88
2022-10-29T19:28:55.640Z,100309.41
2022-10-29T19:31:26.443Z,100309.41
2022-10-29T19:33:56.730Z,100307.63
2022-10-29T19:36:27.353Z,100304.09
2022-10-29T19:38:56.370Z,100307.63
2022-10-29T19:41:25.438Z,100318.22
2022-10-29T19:43:53.867Z,100310.28
2022-10-29T19:46:24.057Z,100327.09
2022-10-29T19:48:53.934Z,100309.41
2022-10-29T19:51:22.902Z,100314.69
2022-10-29T19:53:52.945Z,100323.53
2022-10-29T19:56:22.451Z,100315.56
2022-10-29T19:58:50.728Z,100313.84
2022-10-29T20:01:19.669Z,100316.47
2022-10-29T20:03:48.669Z,100327.09
2022-10-29T20:06:17.739Z,100323.53
2022-10-29T20:08:46.056Z,100328.84
2022-10-29T20:11:15.672Z,100327.97
2022-10-29T20:13:43.950Z,100325.31
2022-10-29T20:16:16.228Z,100328.84
2022-10-29T20:18:45.004Z,100320.00
2022-10-29T20:21:14.229Z,100314.72
2022-10-29T20:23:42.774Z,100312.06
2022-10-29T20:26:11.365Z,100318.25
2022-10-29T20:28:41.115Z,100315.59
2022-10-29T20:31:14.903Z,100310.28
2022-10-29T20:33:43.686Z,100306.78
2022-10-29T20:36:12.100Z,100307.63
2022-10-29T20:38:40.455Z,100306.75
2022-10-29T20:41:09.030Z,100311.19
2022-10-29T20:43:37.364Z,100305.88
2022-10-29T20:46:07.557Z,100301.47
2022-10-29T20:48:36.243Z,100307.66
2022-10-29T20:51:04.902Z,100305.00
2022-10-29T20:53:33.251Z,100308.53
2022-10-29T20:56:01.618Z,100311.19
2022-10-29T20:58:29.953Z,100315.59
2022-10-29T21:01:06.942Z,100315.59
2022-10-29T21:03:35.566Z,100313.84
2022-10-29T21:06:04.465Z,100308.53
2022-10-29T21:08:33.068Z,100319.13
2022-10-29T21:11:02.372Z,100327.09
2022-10-29T21:13:31.124Z,100327.09
2022-10-29T21:16:07.772Z,100328.00
2022-10-29T21:18:39.843Z,100332.38
2022-10-29T21:21:09.343Z,100341.25
2022-10-29T21:23:38.486Z,100335.06
2022-10-29T21:26:07.894Z,100341.25
2022-10-29T21:28:36.564Z,100344.78
2022-10-29T21:31:05.329Z,100339.47
2022-10-29T21:33:35.199Z,100348.34
2022-10-29T21:36:03.755Z,100348.34
2022-10-29T21:38:33.319Z,100355.41
2022-10-29T21:41:02.199Z,100353.66
2022-10-29T21:43:30.768Z,100343.91
2022-10-29T21:45:59.333Z,100353.63
2022-10-29T21:48:28.264Z,100356.31
2022-10-29T21:51:02.761Z,100346.56
2022-10-29T21:53:31.245Z,100341.28
2022-10-29T21:56:00.588Z,100347.47
2022-10-29T21:58:30.398Z,100349.22
2022-10-29T22:01:03.923Z,100347.47
2022-10-29T22:03:32.891Z,100346.56
2022-10-29T22:06:07.555Z,100346.56
2022-10-29T22:08:36.220Z,100350.13
2022-10-29T22:11:05.149Z,100348.38
2022-10-29T22:13:35.130Z,100339.50
2022-10-29T22:16:04.790Z,100352.75
2022-10-29T22:18:33.723Z,100346.59
2022-10-29T22:21:09.031Z,100351.00
2022-10-29T22:23:38.163Z,100350.13
2022-10-29T22:26:06.659Z,100351.00
2022-10-29T22:28:34.966Z,100346.59
2022-10-29T22:31:04.829Z,100342.16
2022-10-29T22:33:34.496Z,100339.50
2022-10-29T22:36:10.050Z,100344.81
2022-10-29T22:38:38.731Z,100344.81
2022-10-29T22:41:08.600Z,100342.16
2022-10-29T22:43:37.033Z,100350.13
2022-10-29T22:46:06.912Z,100341.28
2022-10-29T22:48:35.364Z,100345.69
2022-10-29T22:51:05.747Z,100344.81
2022-10-29T22:53:35.485Z,100338.63
2022-10-29T22:56:04.708Z,100335.09
2022-10-29T22:58:33.106Z,100337.75
2022-10-29T23:01:03.152Z,100334.22
2022-10-29T23:03:31.585Z,100332.47
2022-10-29T23:06:01.213Z,100336.88
2022-10-29T23:08:30.234Z,100339.50
2022-10-29T23:11:00.242Z,100339.50
2022-10-29T23:13:28.525Z,100328.91
2022-10-29T23:15:56.829Z,100330.66
2022-10-29T23:18:25.171Z,100335.09
2022-10-29T23:20:59.222Z,100335.09
2022-10-29T23:23:28.273Z,100336.88
2022-10-29T23:26:00.826Z,100339.50
2022-10-29T23:28:31.880Z,100340.38
2022-10-29T23:31:02.093Z,100339.50
2022-10-29T23:33:31.449Z,100334.19
2022-10-29T23:36:02.744Z,100335.06
2022-10-29T23:38:31.165Z,100330.69
2022-10-29T23:40:59.580Z,100340.38
2022-10-29T23:43:28.435Z,100343.03
2022-10-29T23:45:58.141Z,100335.97
2022-10-29T23:48:26.893Z,100340.41
2022-10-29T23:50:56.356Z,100335.09
2022-10-29T23:53:24.889Z,100343.06
2022-10-29T23:55:53.261Z,100339.50
2022-10-29T23:58:21.636Z,100336.00
